createdAt,value
2017-04-07T00:00:13.911Z,9.04
2017-04-07T00:01:13.880Z,9.02
2017-04-07T00:02:13.867Z,9.04
2017-04-07T00:03:13.858Z,8.96
2017-04-07T00:04:13.548Z,9.05
2017-04-07T00:05:13.841Z,9.01
2017-04-07T00:06:13.829Z,9.05
2017-04-07T00:07:13.821Z,9.01
2017-04-07T00:08:13.811Z,9.04
2017-04-07T00:09:13.801Z,9.2
2017-04-07T00:10:13.792Z,9.05
2017-04-07T00:11:13.784Z,9.14
2017-04-07T00:12:13.472Z,9.11
2017-04-07T00:13:13.766Z,9.17
2017-04-07T00:14:13.757Z,9.1
2017-04-07T00:15:13.749Z,9.18
2017-04-07T00:16:13.744Z,9.02
2017-04-07T00:17:13.728Z,9.05
2017-04-07T00:18:13.719Z,9.02
2017-04-07T00:19:13.710Z,9.04
2017-04-07T00:20:13.702Z,9.04
2017-04-07T00:21:13.694Z,9.02
2017-04-07T00:22:13.683Z,9.01
2017-04-07T00:23:13.673Z,8.87
2017-04-07T00:24:13.361Z,8.99
2017-04-07T00:25:13.656Z,8.95
2017-04-07T00:26:13.651Z,8.77
2017-04-07T00:27:13.369Z,8.79
2017-04-07T00:28:13.325Z,8.77
2017-04-07T00:29:13.617Z,8.7
2017-04-07T00:30:13.611Z,8.83
2017-04-07T00:31:13.601Z,8.63
2017-04-07T00:32:13.595Z,8.77
2017-04-07T00:33:13.583Z,8.58
2017-04-07T00:34:13.572Z,8.63
2017-04-07T00:35:13.564Z,8.62
2017-04-07T00:36:13.558Z,8.58
2017-04-07T00:37:13.542Z,8.59
2017-04-07T00:38:13.533Z,8.55
2017-04-07T00:39:13.539Z,8.55
2017-04-07T00:40:13.516Z,8.52
2017-04-07T00:41:13.506Z,8.52
2017-04-07T00:42:13.195Z,8.5
2017-04-07T00:43:13.489Z,8.47
2017-04-07T00:44:13.476Z,8.44
2017-04-07T00:45:13.467Z,8.44
2017-04-07T00:46:13.458Z,8.48
2017-04-07T00:47:13.449Z,8.33
2017-04-07T00:48:13.439Z,8.37
2017-04-07T00:49:13.433Z,8.3
2017-04-07T00:50:13.117Z,8.34
2017-04-07T00:51:13.108Z,8.4
2017-04-07T00:52:13.419Z,8.33
2017-04-07T00:53:13.392Z,8.36
2017-04-07T00:54:13.384Z,8.36
2017-04-07T00:55:13.374Z,8.38
2017-04-07T00:56:13.362Z,8.3
2017-04-07T00:57:13.354Z,8.4
2017-04-07T00:58:13.342Z,8.36
2017-04-07T00:59:13.336Z,8.37
2017-04-07T01:00:13.323Z,8.36
2017-04-07T01:01:13.316Z,8.33
2017-04-07T01:02:13.308Z,8.38
2017-04-07T01:03:13.302Z,8.37
2017-04-07T01:04:12.981Z,8.36
2017-04-07T01:05:13.576Z,8.36
2017-04-07T01:06:13.266Z,8.3
2017-04-07T01:07:13.256Z,8.3
2017-04-07T01:08:13.247Z,8.28
2017-04-07T01:09:13.238Z,8.29
2017-04-07T01:10:13.528Z,8.28
2017-04-07T01:11:13.216Z,8.26
2017-04-07T01:12:13.212Z,8.22
2017-04-07T01:13:13.198Z,8.19
2017-04-07T01:14:13.189Z,8.22
2017-04-07T01:15:13.483Z,8.25
2017-04-07T01:16:13.170Z,8.23
2017-04-07T01:17:13.159Z,8.23
2017-04-07T01:18:13.149Z,8.22
2017-04-07T01:19:13.141Z,8.25
2017-04-07T01:20:13.080Z,8.2
2017-04-07T01:21:13.122Z,8.25
2017-04-07T01:22:13.111Z,8.15
2017-04-07T01:23:13.100Z,8.25
2017-04-07T01:24:12.787Z,8.25
2017-04-07T01:25:13.338Z,8.29
2017-04-07T01:26:12.769Z,8.25
2017-04-07T01:27:13.061Z,8.18
2017-04-07T01:28:13.054Z,8.25
2017-04-07T01:29:13.042Z,8.22
2017-04-07T01:30:13.285Z,8.1
2017-04-07T01:31:13.021Z,8.28
2017-04-07T01:32:13.016Z,8.22
2017-04-07T01:33:13.001Z,8.22
2017-04-07T01:34:12.992Z,8.1
2017-04-07T01:35:13.336Z,8.29
2017-04-07T01:36:12.973Z,8.15
2017-04-07T01:37:12.966Z,8.18
2017-04-07T01:38:12.953Z,8.1
2017-04-07T01:39:12.943Z,8.1
2017-04-07T01:40:13.186Z,8.19
2017-04-07T01:41:12.926Z,8.25
2017-04-07T01:42:12.917Z,8.26
2017-04-07T01:43:12.905Z,8.28
2017-04-07T01:44:12.900Z,8.25
2017-04-07T01:45:13.184Z,8.23
2017-04-07T01:46:12.878Z,8.2
2017-04-07T01:47:12.867Z,8.25
2017-04-07T01:48:12.856Z,8.25
2017-04-07T01:49:12.854Z,8.3
2017-04-07T01:50:13.139Z,8.28
2017-04-07T01:51:12.827Z,8.22
2017-04-07T01:52:12.817Z,8.33
2017-04-07T01:53:12.809Z,8.3
2017-04-07T01:54:12.797Z,8.22
2017-04-07T01:55:13.042Z,8.19
2017-04-07T01:56:12.780Z,8.29
2017-04-07T01:57:12.768Z,8.3
2017-04-07T01:58:12.760Z,8.2
2017-04-07T01:59:12.748Z,8.19
2017-04-07T02:00:12.989Z,8.28
2017-04-07T02:01:12.730Z,8.2
2017-04-07T02:02:12.722Z,8.2
2017-04-07T02:03:12.715Z,8.22
2017-04-07T02:04:12.702Z,8.29
2017-04-07T02:05:12.943Z,8.22
2017-04-07T02:06:12.680Z,8.33
2017-04-07T02:07:12.670Z,8.28
2017-04-07T02:08:12.661Z,8.36
2017-04-07T02:09:12.652Z,8.33
2017-04-07T02:10:12.995Z,8.33
2017-04-07T02:11:12.633Z,8.36
2017-04-07T02:12:12.622Z,8.33
2017-04-07T02:13:12.612Z,8.36
2017-04-07T02:14:12.603Z,8.34
2017-04-07T02:15:12.591Z,8.37
2017-04-07T02:16:12.584Z,8.34
2017-04-07T02:17:12.572Z,8.4
2017-04-07T02:18:12.569Z,8.38
2017-04-07T02:19:12.552Z,8.34
2017-04-07T02:20:12.845Z,8.48
2017-04-07T02:21:12.534Z,8.34
2017-04-07T02:22:12.524Z,8.34
2017-04-07T02:23:12.520Z,8.45
2017-04-07T02:24:12.505Z,8.37
2017-04-07T02:25:12.746Z,8.5
2017-04-07T02:26:12.183Z,8.47
2017-04-07T02:27:12.476Z,8.48
2017-04-07T02:28:12.469Z,8.45
2017-04-07T02:29:12.458Z,8.4
2017-04-07T02:30:12.700Z,8.45
2017-04-07T02:31:12.452Z,8.36
2017-04-07T02:32:12.429Z,8.41
2017-04-07T02:33:12.431Z,8.44
2017-04-07T02:34:12.408Z,8.45
2017-04-07T02:35:12.697Z,8.45
2017-04-07T02:36:12.391Z,8.43
2017-04-07T02:37:12.379Z,8.43
2017-04-07T02:38:12.370Z,8.47
2017-04-07T02:39:12.358Z,8.5
2017-04-07T02:40:12.650Z,8.52
2017-04-07T02:41:12.339Z,8.4
2017-04-07T02:42:12.028Z,8.43
2017-04-07T02:43:12.319Z,8.48
2017-04-07T02:44:12.313Z,8.48
2017-04-07T02:45:12.552Z,8.45
2017-04-07T02:46:12.289Z,8.45
2017-04-07T02:47:12.281Z,8.37
2017-04-07T02:48:12.276Z,8.44
2017-04-07T02:49:12.263Z,8.41
2017-04-07T02:50:12.604Z,8.36
2017-04-07T02:51:12.244Z,8.48
2017-04-07T02:52:12.235Z,8.41
2017-04-07T02:53:12.222Z,8.45
2017-04-07T02:54:11.910Z,8.53
2017-04-07T02:55:12.454Z,8.52
2017-04-07T02:56:12.195Z,8.52
2017-04-07T02:57:12.182Z,8.56
2017-04-07T02:58:12.174Z,8.53
2017-04-07T02:59:12.165Z,8.55
2017-04-07T03:00:12.456Z,8.53
2017-04-07T03:01:12.147Z,8.58
2017-04-07T03:02:11.832Z,8.63
2017-04-07T03:03:12.125Z,8.59
2017-04-07T03:04:11.812Z,8.61
2017-04-07T03:05:12.108Z,8.63
2017-04-07T03:06:11.797Z,8.59
2017-04-07T03:07:12.092Z,8.58
2017-04-07T03:08:12.081Z,8.59
2017-04-07T03:09:12.069Z,8.58
2017-04-07T03:10:12.068Z,8.56
2017-04-07T03:11:12.055Z,8.52
2017-04-07T03:12:12.041Z,8.53
2017-04-07T03:13:12.029Z,8.55
2017-04-07T03:14:12.056Z,8.53
2017-04-07T03:15:12.010Z,8.52
2017-04-07T03:16:12.001Z,8.56
2017-04-07T03:17:11.992Z,8.5
2017-04-07T03:18:11.983Z,8.45
2017-04-07T03:19:11.970Z,8.52
2017-04-07T03:20:11.662Z,8.4
2017-04-07T03:21:11.953Z,8.5
2017-04-07T03:22:11.945Z,8.48
2017-04-07T03:23:11.935Z,8.44
2017-04-07T03:24:11.924Z,8.4
2017-04-07T03:25:11.919Z,8.5
2017-04-07T03:26:11.926Z,8.3
2017-04-07T03:27:11.896Z,8.37
2017-04-07T03:28:11.886Z,8.37
2017-04-07T03:29:11.881Z,8.38
2017-04-07T03:30:11.870Z,8.34
2017-04-07T03:31:11.857Z,8.37
2017-04-07T03:32:11.854Z,8.34
2017-04-07T03:33:11.837Z,8.34
2017-04-07T03:34:11.830Z,8.3
2017-04-07T03:35:11.818Z,8.33
2017-04-07T03:36:11.811Z,8.26
2017-04-07T03:37:11.800Z,8.26
2017-04-07T03:38:11.793Z,8.34
2017-04-07T03:39:11.781Z,8.26
2017-04-07T03:40:11.771Z,8.26
2017-04-07T03:41:11.761Z,8.26
2017-04-07T03:42:11.752Z,8.33
2017-04-07T03:43:11.739Z,8.26
2017-04-07T03:44:11.427Z,8.36
2017-04-07T03:45:11.720Z,8.3
2017-04-07T03:46:11.712Z,8.26
2017-04-07T03:47:11.701Z,8.36
2017-04-07T03:48:11.690Z,8.33
2017-04-07T03:49:11.679Z,8.34
2017-04-07T03:50:11.368Z,8.33
2017-04-07T03:51:11.658Z,8.36
2017-04-07T03:52:11.654Z,8.3
2017-04-07T03:53:11.641Z,8.38
2017-04-07T03:54:11.633Z,8.37
2017-04-07T03:55:11.621Z,8.37
2017-04-07T03:56:11.963Z,8.47
2017-04-07T03:57:11.603Z,8.43
2017-04-07T03:58:11.597Z,8.44
2017-04-07T03:59:11.584Z,8.47
2017-04-07T04:00:11.577Z,8.47
2017-04-07T04:01:11.865Z,8.43
2017-04-07T04:02:11.558Z,8.47
2017-04-07T04:03:11.242Z,8.37
2017-04-07T04:04:11.537Z,8.37
2017-04-07T04:05:11.526Z,8.52
2017-04-07T04:06:11.764Z,8.48
2017-04-07T04:07:11.509Z,8.5
2017-04-07T04:08:11.501Z,8.55
2017-04-07T04:09:11.490Z,8.61
2017-04-07T04:10:11.172Z,8.61
2017-04-07T04:11:11.717Z,8.59
2017-04-07T04:12:11.154Z,8.55
2017-04-07T04:13:11.447Z,8.7
2017-04-07T04:14:11.438Z,8.7
2017-04-07T04:15:11.433Z,8.61
2017-04-07T04:16:11.115Z,8.68
2017-04-07T04:17:11.107Z,8.66
2017-04-07T04:18:11.101Z,8.74
2017-04-07T04:19:11.389Z,8.73
2017-04-07T04:20:11.378Z,8.66
2017-04-07T04:21:11.371Z,8.7
2017-04-07T04:22:11.362Z,8.71
2017-04-07T04:23:11.355Z,8.74
2017-04-07T04:24:11.341Z,8.76
2017-04-07T04:25:11.329Z,8.65
2017-04-07T04:26:11.020Z,8.8
2017-04-07T04:27:11.311Z,8.66
2017-04-07T04:28:11.301Z,8.7
2017-04-07T04:29:11.292Z,8.73
2017-04-07T04:30:10.980Z,8.74
2017-04-07T04:31:11.273Z,8.76
2017-04-07T04:32:11.265Z,8.71
2017-04-07T04:33:11.254Z,8.73
2017-04-07T04:34:11.245Z,8.76
2017-04-07T04:35:11.238Z,8.73
2017-04-07T04:36:11.228Z,8.63
2017-04-07T04:37:10.919Z,8.7
2017-04-07T04:38:11.206Z,8.65
2017-04-07T04:39:11.194Z,8.71
2017-04-07T04:40:11.190Z,8.62
2017-04-07T04:41:11.180Z,8.61
2017-04-07T04:42:11.168Z,8.55
2017-04-07T04:43:11.159Z,8.45
2017-04-07T04:44:11.152Z,8.52
2017-04-07T04:45:11.144Z,8.52
2017-04-07T04:46:11.130Z,8.55
2017-04-07T04:47:10.816Z,8.5
2017-04-07T04:48:10.807Z,8.47
2017-04-07T04:49:11.102Z,8.5
2017-04-07T04:50:11.090Z,8.55
2017-04-07T04:51:11.080Z,8.56
2017-04-07T04:52:11.078Z,8.53
2017-04-07T04:53:11.069Z,8.55
2017-04-07T04:54:11.050Z,8.62
2017-04-07T04:55:11.043Z,8.63
2017-04-07T04:56:10.732Z,8.63
2017-04-07T04:57:11.023Z,8.56
2017-04-07T04:58:11.028Z,8.61
2017-04-07T04:59:11.005Z,8.71
2017-04-07T05:00:11.001Z,8.73
2017-04-07T05:01:10.984Z,8.74
2017-04-07T05:02:10.978Z,8.76
2017-04-07T05:03:10.966Z,8.77
2017-04-07T05:04:10.655Z,8.71
2017-04-07T05:05:10.949Z,8.76
2017-04-07T05:06:10.938Z,8.8
2017-04-07T05:07:11.178Z,8.79
2017-04-07T05:08:10.615Z,8.8
2017-04-07T05:09:10.910Z,8.79
2017-04-07T05:10:10.294Z,8.81
2017-04-07T05:11:10.892Z,8.81
2017-04-07T05:12:11.135Z,8.89
2017-04-07T05:13:10.871Z,8.81
2017-04-07T05:14:10.862Z,8.86
2017-04-07T05:15:10.873Z,8.89
2017-04-07T05:16:10.844Z,8.83
2017-04-07T05:17:11.086Z,8.89
2017-04-07T05:18:10.827Z,8.92
2017-04-07T05:19:10.822Z,8.92
2017-04-07T05:20:10.811Z,8.86
2017-04-07T05:21:10.795Z,8.94
2017-04-07T05:22:11.146Z,8.94
2017-04-07T05:23:10.776Z,8.96
2017-04-07T05:24:10.791Z,8.98
2017-04-07T05:25:10.757Z,8.96
2017-04-07T05:26:10.758Z,8.92
2017-04-07T05:27:11.038Z,8.99
2017-04-07T05:28:10.728Z,9.05
2017-04-07T05:29:10.749Z,9.1
2017-04-07T05:30:10.712Z,9.17
2017-04-07T05:31:10.702Z,9.14
2017-04-07T05:32:10.945Z,9.11
2017-04-07T05:33:10.685Z,9.2
2017-04-07T05:34:10.371Z,9.18
2017-04-07T05:35:10.665Z,9.18
2017-04-07T05:36:10.657Z,9.28
2017-04-07T05:37:10.899Z,9.28
2017-04-07T05:38:10.335Z,9.24
2017-04-07T05:39:10.629Z,9.2
2017-04-07T05:40:10.619Z,9.18
2017-04-07T05:41:10.609Z,9.21
2017-04-07T05:42:10.924Z,9.18
2017-04-07T05:43:10.591Z,9.21
2017-04-07T05:44:10.581Z,9.2
2017-04-07T05:45:10.574Z,9.15
2017-04-07T05:46:10.563Z,9.21
2017-04-07T05:47:10.817Z,9.15
2017-04-07T05:48:10.557Z,9.18
2017-04-07T05:49:10.536Z,9.13
2017-04-07T05:50:10.529Z,9.28
2017-04-07T05:51:10.522Z,9.2
2017-04-07T05:52:10.812Z,9.26
2017-04-07T05:53:10.497Z,9.28
2017-04-07T05:54:10.188Z,9.28
2017-04-07T05:55:10.482Z,9.26
2017-04-07T05:56:10.475Z,9.26
2017-04-07T05:57:10.716Z,9.23
2017-04-07T05:58:10.151Z,9.32
2017-04-07T05:59:10.445Z,9.21
2017-04-07T06:00:10.436Z,9.29
2017-04-07T06:01:10.432Z,9.18
2017-04-07T06:02:10.116Z,9.23
2017-04-07T06:03:10.408Z,9.23
2017-04-07T06:04:10.399Z,9.18
2017-04-07T06:05:10.388Z,9.28
2017-04-07T06:06:10.379Z,9.26
2017-04-07T06:07:10.372Z,9.33
2017-04-07T06:08:10.363Z,9.28
2017-04-07T06:09:10.049Z,9.31
2017-04-07T06:10:10.347Z,9.35
2017-04-07T06:11:10.333Z,9.33
2017-04-07T06:12:10.330Z,9.31
2017-04-07T06:13:10.319Z,9.43
2017-04-07T06:14:10.304Z,9.38
2017-04-07T06:15:09.995Z,9.4
2017-04-07T06:16:09.987Z,9.38
2017-04-07T06:17:10.280Z,9.32
2017-04-07T06:18:10.216Z,9.31
2017-04-07T06:19:10.261Z,9.32
2017-04-07T06:20:09.950Z,9.24
2017-04-07T06:21:10.247Z,9.28
2017-04-07T06:22:09.935Z,9.29
2017-04-07T06:23:10.473Z,9.28
2017-04-07T06:24:10.219Z,9.28
2017-04-07T06:25:09.904Z,9.31
2017-04-07T06:26:10.202Z,9.23
2017-04-07T06:27:09.886Z,9.18
2017-04-07T06:28:10.483Z,9.2
2017-04-07T06:29:10.172Z,9.2
2017-04-07T06:30:10.163Z,9.26
2017-04-07T06:31:10.152Z,9.13
2017-04-07T06:32:10.144Z,9.28
2017-04-07T06:33:10.390Z,9.18
2017-04-07T06:34:10.127Z,9.24
2017-04-07T06:35:10.121Z,9.18
2017-04-07T06:36:10.129Z,9.32
2017-04-07T06:37:10.099Z,9.33
2017-04-07T06:38:10.442Z,9.28
2017-04-07T06:39:10.082Z,9.31
2017-04-07T06:40:10.071Z,9.33
2017-04-07T06:41:10.061Z,9.31
2017-04-07T06:42:10.054Z,9.23
2017-04-07T06:43:10.344Z,9.33
2017-04-07T06:44:10.039Z,9.28
2017-04-07T06:45:10.027Z,9.29
2017-04-07T06:46:10.019Z,9.29
2017-04-07T06:47:10.011Z,9.36
2017-04-07T06:48:10.249Z,9.31
2017-04-07T06:49:09.989Z,9.33
2017-04-07T06:50:09.982Z,9.32
2017-04-07T06:51:09.978Z,9.29
2017-04-07T06:52:09.963Z,9.26
2017-04-07T06:53:10.305Z,9.29
2017-04-07T06:54:09.642Z,9.28
2017-04-07T06:55:09.937Z,9.21
2017-04-07T06:56:09.630Z,9.24
2017-04-07T06:57:09.945Z,9.15
2017-04-07T06:58:10.164Z,9.24
2017-04-07T06:59:09.901Z,9.31
2017-04-07T07:00:09.591Z,9.28
2017-04-07T07:01:09.883Z,9.29
2017-04-07T07:02:09.571Z,9.28
2017-04-07T07:03:10.117Z,9.23
2017-04-07T07:04:09.855Z,9.2
2017-04-07T07:05:09.849Z,9.2
2017-04-07T07:06:09.837Z,9.23
2017-04-07T07:07:09.830Z,9.17
2017-04-07T07:08:10.170Z,9.21
2017-04-07T07:09:09.815Z,9.17
2017-04-07T07:10:09.803Z,9.05
2017-04-07T07:11:09.795Z,9.15
2017-04-07T07:12:09.786Z,9.2
2017-04-07T07:13:10.075Z,9.15
2017-04-07T07:14:09.462Z,9.17
2017-04-07T07:15:09.756Z,9.23
2017-04-07T07:16:09.447Z,9.2
2017-04-07T07:17:09.745Z,9.24
2017-04-07T07:18:09.991Z,9.26
2017-04-07T07:19:09.721Z,9.31
2017-04-07T07:20:09.715Z,9.33
2017-04-07T07:21:09.703Z,9.32
2017-04-07T07:22:09.693Z,9.32
2017-04-07T07:23:09.984Z,9.24
2017-04-07T07:24:09.680Z,9.26
2017-04-07T07:25:09.666Z,9.33
2017-04-07T07:26:09.656Z,9.33
2017-04-07T07:27:09.651Z,9.35
2017-04-07T07:28:09.645Z,9.31
2017-04-07T07:29:09.632Z,9.47
2017-04-07T07:30:09.621Z,9.4
2017-04-07T07:31:09.612Z,9.48
2017-04-07T07:32:09.604Z,9.48
2017-04-07T07:33:09.947Z,9.51
2017-04-07T07:34:09.590Z,9.51
2017-04-07T07:35:09.578Z,9.53
2017-04-07T07:36:09.570Z,9.47
2017-04-07T07:37:09.259Z,9.47
2017-04-07T07:38:09.849Z,9.47
2017-04-07T07:39:09.543Z,9.53
2017-04-07T07:40:09.533Z,9.57
2017-04-07T07:41:09.529Z,9.61
2017-04-07T07:42:09.515Z,9.64
2017-04-07T07:43:09.759Z,9.65
2017-04-07T07:44:09.503Z,9.61
2017-04-07T07:45:09.490Z,9.69
2017-04-07T07:46:09.482Z,9.74
2017-04-07T07:47:09.474Z,9.71
2017-04-07T07:48:09.462Z,9.74
2017-04-07T07:49:09.152Z,9.78
2017-04-07T07:50:09.449Z,9.79
2017-04-07T07:51:09.437Z,9.83
2017-04-07T07:52:09.432Z,9.83
2017-04-07T07:53:09.670Z,9.94
2017-04-07T07:54:09.409Z,9.91
2017-04-07T07:55:09.402Z,10.01
2017-04-07T07:56:09.417Z,10.01
2017-04-07T07:57:09.385Z,9.99
2017-04-07T07:58:09.676Z,9.99
2017-04-07T07:59:09.370Z,9.99
2017-04-07T08:00:09.358Z,9.97
2017-04-07T08:01:09.351Z,9.99
2017-04-07T08:02:09.341Z,10.11
2017-04-07T08:03:09.593Z,10.01
2017-04-07T08:04:09.326Z,10.08
2017-04-07T08:05:09.316Z,10.07
2017-04-07T08:06:09.326Z,10.09
2017-04-07T08:07:09.306Z,10.09
2017-04-07T08:08:09.596Z,10.17
2017-04-07T08:09:09.286Z,10.22
2017-04-07T08:10:09.278Z,10.22
2017-04-07T08:11:09.272Z,10.26
2017-04-07T08:12:09.256Z,10.29
2017-04-07T08:13:09.500Z,10.36
2017-04-07T08:14:09.245Z,10.38
2017-04-07T08:15:09.234Z,10.34
2017-04-07T08:16:09.224Z,10.38
2017-04-07T08:17:09.218Z,10.44
2017-04-07T08:18:08.903Z,10.45
2017-04-07T08:19:09.201Z,10.48
2017-04-07T08:20:09.191Z,10.51
2017-04-07T08:21:09.185Z,10.53
2017-04-07T08:22:09.177Z,10.53
2017-04-07T08:23:09.167Z,10.51
2017-04-07T08:24:09.159Z,10.55
2017-04-07T08:25:09.149Z,10.63
2017-04-07T08:26:09.141Z,10.67
2017-04-07T08:27:09.136Z,10.64
2017-04-07T08:28:09.127Z,10.73
2017-04-07T08:29:09.124Z,10.81
2017-04-07T08:30:09.110Z,10.81
2017-04-07T08:31:09.105Z,10.86
2017-04-07T08:32:09.109Z,10.86
2017-04-07T08:33:09.086Z,10.89
2017-04-07T08:34:09.079Z,10.94
2017-04-07T08:35:09.075Z,11
2017-04-07T08:36:09.063Z,10.91
2017-04-07T08:37:08.751Z,10.92
2017-04-07T08:38:08.745Z,10.91
2017-04-07T08:39:09.041Z,10.99
2017-04-07T08:40:09.037Z,10.99
2017-04-07T08:41:09.024Z,11.07
2017-04-07T08:42:09.017Z,11.14
2017-04-07T08:43:09.014Z,11.24
2017-04-07T08:44:09.017Z,11.29
2017-04-07T08:45:08.995Z,11.25
2017-04-07T08:46:08.993Z,11.22
2017-04-07T08:47:08.979Z,11.25
2017-04-07T08:48:08.971Z,11.32
2017-04-07T08:49:08.662Z,11.29
2017-04-07T08:50:08.956Z,11.42
2017-04-07T08:51:08.948Z,11.35
2017-04-07T08:52:08.944Z,11.4
2017-04-07T08:53:08.932Z,11.46
2017-04-07T08:54:08.621Z,11.32
2017-04-07T08:55:08.940Z,11.28
2017-04-07T08:56:08.938Z,11.35
2017-04-07T08:57:08.903Z,11.35
2017-04-07T08:58:08.896Z,11.35
2017-04-07T08:59:08.892Z,11.35
2017-04-07T09:00:08.888Z,11.51
2017-04-07T09:01:08.571Z,11.47
2017-04-07T09:02:08.865Z,11.52
2017-04-07T09:03:08.858Z,11.58
2017-04-07T09:04:08.853Z,11.61
2017-04-07T09:05:08.847Z,11.67
2017-04-07T09:06:08.842Z,11.65
2017-04-07T09:07:08.837Z,11.69
2017-04-07T09:08:08.822Z,11.79
2017-04-07T09:09:08.815Z,11.76
2017-04-07T09:10:08.505Z,11.83
2017-04-07T09:11:08.805Z,11.86
2017-04-07T09:12:08.794Z,11.9
2017-04-07T09:13:08.786Z,11.98
2017-04-07T09:14:08.780Z,11.96
2017-04-07T09:15:08.777Z,12.01
2017-04-07T09:16:08.765Z,11.99
2017-04-07T09:17:08.760Z,12.01
2017-04-07T09:18:08.754Z,12.02
2017-04-07T09:19:08.747Z,12.1
2017-04-07T09:20:08.740Z,11.99
2017-04-07T09:21:08.736Z,11.99
2017-04-07T09:22:08.729Z,12.01
2017-04-07T09:23:08.719Z,12.12
2017-04-07T09:24:08.712Z,12.07
2017-04-07T09:25:08.710Z,12.14
2017-04-07T09:26:08.702Z,12.2
2017-04-07T09:27:08.693Z,12.14
2017-04-07T09:28:08.685Z,12.24
2017-04-07T09:29:08.679Z,12.16
2017-04-07T09:30:08.672Z,12.14
2017-04-07T09:31:08.676Z,12.13
2017-04-07T09:32:08.659Z,12.16
2017-04-07T09:33:08.651Z,12.1
2017-04-07T09:34:08.646Z,12.13
2017-04-07T09:35:08.639Z,12.05
2017-04-07T09:36:08.631Z,11.99
2017-04-07T09:37:08.627Z,12.02
2017-04-07T09:38:08.317Z,12.01
2017-04-07T09:39:08.614Z,11.98
2017-04-07T09:40:08.605Z,12.1
2017-04-07T09:41:08.600Z,12.1
2017-04-07T09:42:08.592Z,12.04
2017-04-07T09:43:08.586Z,12.04
2017-04-07T09:44:08.579Z,12.02
2017-04-07T09:45:08.580Z,11.94
2017-04-07T09:46:08.567Z,11.98
2017-04-07T09:47:08.558Z,11.9
2017-04-07T09:48:08.552Z,11.95
2017-04-07T09:49:08.546Z,11.98
2017-04-07T09:50:07.933Z,11.96
2017-04-07T09:51:08.530Z,11.98
2017-04-07T09:52:08.526Z,12.01
2017-04-07T09:53:08.550Z,12.02
2017-04-07T09:54:08.514Z,12.04
2017-04-07T09:55:08.510Z,12.02
2017-04-07T09:56:08.195Z,11.98
2017-04-07T09:57:08.205Z,12.04
2017-04-07T09:58:08.487Z,12.09
2017-04-07T09:59:08.478Z,12.04
2017-04-07T10:00:08.167Z,12.02
2017-04-07T10:01:08.463Z,12.04
2017-04-07T10:02:08.457Z,12.02
2017-04-07T10:03:08.449Z,12.14
2017-04-07T10:04:08.439Z,12.09
2017-04-07T10:05:08.439Z,12.13
2017-04-07T10:06:08.430Z,12.23
2017-04-07T10:07:08.425Z,12.27
2017-04-07T10:08:08.112Z,12.24
2017-04-07T10:09:08.670Z,12.28
2017-04-07T10:10:08.408Z,12.31
2017-04-07T10:11:08.091Z,12.28
2017-04-07T10:12:08.390Z,12.31
2017-04-07T10:13:08.383Z,12.47
2017-04-07T10:14:08.626Z,12.46
2017-04-07T10:15:08.373Z,12.42
2017-04-07T10:16:08.363Z,12.46
2017-04-07T10:17:08.356Z,12.38
2017-04-07T10:18:08.354Z,12.42
2017-04-07T10:19:08.596Z,12.49
2017-04-07T10:20:08.039Z,12.47
2017-04-07T10:21:08.331Z,12.49
2017-04-07T10:22:08.022Z,12.47
2017-04-07T10:23:08.322Z,12.46
2017-04-07T10:24:08.562Z,12.46
2017-04-07T10:25:08.332Z,12.46
2017-04-07T10:26:08.301Z,12.49
2017-04-07T10:27:08.293Z,12.46
2017-04-07T10:28:08.289Z,12.49
2017-04-07T10:29:08.581Z,12.56
2017-04-07T10:30:08.274Z,12.65
2017-04-07T10:31:07.966Z,12.68
2017-04-07T10:32:08.608Z,12.75
2017-04-07T10:33:08.255Z,12.85
2017-04-07T10:34:08.499Z,12.79
2017-04-07T10:35:07.941Z,12.93
2017-04-07T10:36:07.934Z,12.97
2017-04-07T10:37:07.926Z,13.15
2017-04-07T10:38:08.226Z,13.11
2017-04-07T10:39:08.522Z,13.19
2017-04-07T10:40:07.913Z,13.19
2017-04-07T10:41:08.208Z,13.25
2017-04-07T10:42:07.924Z,13.33
2017-04-07T10:43:08.198Z,13.39
2017-04-07T10:44:08.490Z,13.41
2017-04-07T10:45:07.880Z,13.41
2017-04-07T10:46:08.179Z,13.44
2017-04-07T10:47:08.173Z,13.42
2017-04-07T10:48:08.180Z,13.55
2017-04-07T10:49:08.461Z,13.67
2017-04-07T10:50:08.155Z,13.62
2017-04-07T10:51:08.149Z,13.69
2017-04-07T10:52:07.838Z,13.67
2017-04-07T10:53:08.136Z,13.71
2017-04-07T10:54:08.383Z,13.77
2017-04-07T10:55:08.126Z,13.85
2017-04-07T10:56:08.121Z,13.96
2017-04-07T10:57:08.135Z,13.91
2017-04-07T10:58:07.825Z,14.04
2017-04-07T10:59:08.404Z,14.06
2017-04-07T11:00:07.794Z,14.04
2017-04-07T11:01:08.095Z,14.07
2017-04-07T11:02:08.091Z,14.2
2017-04-07T11:03:08.084Z,14.22
2017-04-07T11:04:08.327Z,14.32
2017-04-07T11:05:08.070Z,14.39
2017-04-07T11:06:08.081Z,14.45
2017-04-07T11:07:08.061Z,14.62
2017-04-07T11:08:07.754Z,14.64
2017-04-07T11:09:08.302Z,14.57
2017-04-07T11:10:08.047Z,14.65
2017-04-07T11:11:08.044Z,14.7
2017-04-07T11:12:08.035Z,14.68
2017-04-07T11:13:08.038Z,14.65
2017-04-07T11:14:08.326Z,14.57
2017-04-07T11:15:08.022Z,14.62
2017-04-07T11:16:08.018Z,14.62
2017-04-07T11:17:08.015Z,14.69
2017-04-07T11:18:08.010Z,14.62
2017-04-07T11:19:07.953Z,14.64
2017-04-07T11:20:07.696Z,14.6
2017-04-07T11:21:08.005Z,14.61
2017-04-07T11:22:07.989Z,14.51
2017-04-07T11:23:07.682Z,14.57
2017-04-07T11:24:08.284Z,14.64
2017-04-07T11:25:07.979Z,14.65
2017-04-07T11:26:07.667Z,14.62
2017-04-07T11:27:08.168Z,14.72
2017-04-07T11:28:07.980Z,14.69
2017-04-07T11:29:08.309Z,14.64
2017-04-07T11:30:07.965Z,14.62
2017-04-07T11:31:07.947Z,14.65
2017-04-07T11:32:07.942Z,14.47
2017-04-07T11:33:07.949Z,14.51
2017-04-07T11:34:08.182Z,14.37
2017-04-07T11:35:07.938Z,14.27
2017-04-07T11:36:07.935Z,14.28
2017-04-07T11:37:07.615Z,14.27
2017-04-07T11:38:07.918Z,14.39
2017-04-07T11:39:08.161Z,14.37
2017-04-07T11:40:07.905Z,14.25
2017-04-07T11:41:07.898Z,14.4
2017-04-07T11:42:07.912Z,14.35
2017-04-07T11:43:07.898Z,14.36
2017-04-07T11:44:08.149Z,14.37
2017-04-07T11:45:07.885Z,14.36
2017-04-07T11:46:07.586Z,14.4
2017-04-07T11:47:07.873Z,14.35
2017-04-07T11:48:07.875Z,14.27
2017-04-07T11:49:08.170Z,14.37
2017-04-07T11:50:07.565Z,14.45
2017-04-07T11:51:07.862Z,14.37
2017-04-07T11:52:07.539Z,14.45
2017-04-07T11:53:07.840Z,14.46
2017-04-07T11:54:07.881Z,14.54
2017-04-07T11:55:07.529Z,14.6
2017-04-07T11:56:07.826Z,14.55
2017-04-07T11:57:07.821Z,14.57
2017-04-07T11:58:07.822Z,14.58
2017-04-07T11:59:08.063Z,14.57
2017-04-07T12:00:07.500Z,14.5
2017-04-07T12:01:07.803Z,14.47
2017-04-07T12:02:07.792Z,14.52
2017-04-07T12:03:07.792Z,14.55
2017-04-07T12:04:08.035Z,14.57
2017-04-07T12:05:07.778Z,14.68
2017-04-07T12:06:07.780Z,14.57
2017-04-07T12:07:07.771Z,14.64
2017-04-07T12:08:07.769Z,14.58
2017-04-07T12:09:08.009Z,14.52
2017-04-07T12:10:07.754Z,14.55
2017-04-07T12:11:07.750Z,14.69
2017-04-07T12:12:07.748Z,14.61
2017-04-07T12:13:07.741Z,14.72
2017-04-07T12:14:07.983Z,14.75
2017-04-07T12:15:07.730Z,14.77
2017-04-07T12:16:07.733Z,14.68
2017-04-07T12:17:07.722Z,14.65
2017-04-07T12:18:07.714Z,14.6
2017-04-07T12:19:08.014Z,14.62
2017-04-07T12:20:07.713Z,14.65
2017-04-07T12:21:07.401Z,14.52
2017-04-07T12:22:07.700Z,14.58
2017-04-07T12:23:07.693Z,14.55
2017-04-07T12:24:07.941Z,14.55
2017-04-07T12:25:07.380Z,14.55
2017-04-07T12:26:07.407Z,14.61
2017-04-07T12:27:07.677Z,14.47
2017-04-07T12:28:07.671Z,14.6
2017-04-07T12:29:08.015Z,14.47
2017-04-07T12:30:07.661Z,14.55
2017-04-07T12:31:07.659Z,14.52
2017-04-07T12:32:07.646Z,14.55
2017-04-07T12:33:07.645Z,14.6
2017-04-07T12:34:07.890Z,14.54
2017-04-07T12:35:07.633Z,14.54
2017-04-07T12:36:07.629Z,14.54
2017-04-07T12:37:07.622Z,14.4
2017-04-07T12:38:07.619Z,14.22
2017-04-07T12:39:07.917Z,14.36
2017-04-07T12:40:07.612Z,14.28
2017-04-07T12:41:07.603Z,14.27
2017-04-07T12:42:07.597Z,14.24
2017-04-07T12:43:07.594Z,14.25
2017-04-07T12:44:07.940Z,14.28
2017-04-07T12:45:07.284Z,14.45
2017-04-07T12:46:07.576Z,14.39
2017-04-07T12:47:07.574Z,14.45
2017-04-07T12:48:07.569Z,14.45
2017-04-07T12:49:07.820Z,14.58
2017-04-07T12:50:07.563Z,14.55
2017-04-07T12:51:07.554Z,14.6
2017-04-07T12:52:07.246Z,14.65
2017-04-07T12:53:07.545Z,14.75
2017-04-07T12:54:07.791Z,14.75
2017-04-07T12:55:07.533Z,14.64
2017-04-07T12:56:07.531Z,14.54
2017-04-07T12:57:07.523Z,14.57
2017-04-07T12:58:07.520Z,14.57
2017-04-07T12:59:07.764Z,14.55
2017-04-07T13:00:07.512Z,14.51
2017-04-07T13:01:07.506Z,14.6
2017-04-07T13:02:07.499Z,14.55
2017-04-07T13:03:07.495Z,14.58
2017-04-07T13:04:07.839Z,14.5
2017-04-07T13:05:07.484Z,14.57
2017-04-07T13:06:07.478Z,14.5
2017-04-07T13:07:07.477Z,14.5
2017-04-07T13:08:07.471Z,14.45
2017-04-07T13:09:07.713Z,14.22
2017-04-07T13:10:07.462Z,14.28